sensor_id;sensor_type;location;lat;lon;timestamp;pressure;altitude;pressure_sealevel;temperature;humidity
26178;BME280;13924;47.670;10.310;2023-12-04T00:00:43;93410;;;-9.1;100.0
26178;BME280;13924;47.670;10.310;2023-12-04T00:15:42;93410;;;-9.1;100.0
26178;BME280;13924;47.670;10.310;2023-12-04T00:30:44;93360;;;-9.5;100.0
26178;BME280;13924;47.670;10.310;2023-12-04T00:45:45;93380;;;-9.5;100.0
26178;BME280;13924;47.670;10.310;2023-12-04T01:00:47;93410;;;-9.7;100.0
26178;BME280;13924;47.670;10.310;2023-12-04T01:15:46;93480;;;-9.4;100.0
26178;BME280;13924;47.670;10.310;2023-12-04T01:30:47;93330;;;-9.9;100.0
26178;BME280;13924;47.670;10.310;2023-12-04T01:45:46;93320;;;-9.7;100.0
26178;BME280;13924;47.670;10.310;2023-12-04T02:00:47;93320;;;-9.7;100.0
26178;BME280;13924;47.670;10.310;2023-12-04T02:01:27;93300;;;-9.1;100.0
26178;BME280;13924;47.670;10.310;2023-12-04T02:15:49;93190;;;-10.1;100.0
26178;BME280;13924;47.670;10.310;2023-12-04T02:30:49;93230;;;-9.9;100.0
26178;BME280;13924;47.670;10.310;2023-12-04T02:45:47;93260;;;-9.9;100.0
26178;BME280;13924;47.670;10.310;2023-12-04T03:00:49;93300;;;-10.2;100.0
26178;BME280;13924;47.670;10.310;2023-12-04T03:15:49;93300;;;-10.2;100.0
26178;BME280;13924;47.670;10.310;2023-12-04T03:30:49;93160;;;-9.6;100.0
26178;BME280;13924;47.670;10.310;2023-12-04T03:45:50;93110;;;-9.9;100.0
26178;BME280;13924;47.670;10.310;2023-12-04T04:00:53;93080;;;-10.3;100.0
26178;BME280;13924;47.670;10.310;2023-12-04T04:15:51;93170;;;-10.2;100.0
26178;BME280;13924;47.670;10.310;2023-12-04T04:30:55;93120;;;-10.7;100.0
26178;BME280;13924;47.670;10.310;2023-12-04T04:45:53;93150;;;-10.6;100.0
26178;BME280;13924;47.670;10.310;2023-12-04T05:00:55;93160;;;-10.2;100.0
26178;BME280;13924;47.670;10.310;2023-12-04T05:15:59;93120;;;-9.8;100.0
26178;BME280;13924;47.670;10.310;2023-12-04T05:30:57;93050;;;-9.7;100.0
26178;BME280;13924;47.670;10.310;2023-12-04T05:45:56;93000;;;-9.8;100.0
26178;BME280;13924;47.670;10.310;2023-12-04T06:00:57;93020;;;-9.8;100.0
26178;BME280;13924;47.670;10.310;2023-12-04T06:15:57;93010;;;-9.9;100.0
26178;BME280;13924;47.670;10.310;2023-12-04T06:31:00;93040;;;-9.9;100.0
26178;BME280;13924;47.670;10.310;2023-12-04T06:45:30;93080;;;-9.9;100.0
26178;BME280;13924;47.670;10.310;2023-12-04T07:00:30;93090;;;-10.1;100.0
26178;BME280;13924;47.670;10.310;2023-12-04T07:15:30;93080;;;-9.9;100.0
26178;BME280;13924;47.670;10.310;2023-12-04T07:30:32;93180;;;-9.1;100.0
26178;BME280;13924;47.670;10.310;2023-12-04T07:45:31;93220;;;-9.1;100.0
26178;BME280;13924;47.670;10.310;2023-12-04T08:00:34;93220;;;-9.1;100.0
26178;BME280;13924;47.670;10.310;2023-12-04T08:15:33;93120;;;-8.6;100.0
26178;BME280;13924;47.670;10.310;2023-12-04T08:30:36;93120;;;-8.6;100.0
26178;BME280;13924;47.670;10.310;2023-12-04T08:45:35;93120;;;-7.6;100.0
26178;BME280;13924;47.670;10.310;2023-12-04T09:00:35;93130;;;-7.0;100.0
26178;BME280;13924;47.670;10.310;2023-12-04T09:15:38;93130;;;-7.0;100.0
26178;BME280;13924;47.670;10.310;2023-12-04T09:30:37;93020;;;-6.8;100.0
26178;BME280;13924;47.670;10.310;2023-12-04T09:45:38;93080;;;-6.8;100.0
26178;BME280;13924;47.670;10.310;2023-12-04T10:00:41;93080;;;-6.8;100.0
26178;BME280;13924;47.670;10.310;2023-12-04T10:15:47;93110;;;-5.7;100.0
26178;BME280;13924;47.670;10.310;2023-12-04T10:30:39;93110;;;-5.5;100.0
26178;BME280;13924;47.670;10.310;2023-12-04T10:45:41;93090;;;-5.3;100.0
26178;BME280;13924;47.670;10.310;2023-12-04T11:00:44;93090;;;-5.3;100.0
26178;BME280;13924;47.670;10.310;2023-12-04T11:15:46;93120;;;-4.2;100.0
26178;BME280;13924;47.670;10.310;2023-12-04T11:30:42;92990;;;-2.1;100.0
26178;BME280;13924;47.670;10.310;2023-12-04T11:45:43;92670;;;3.9;100.0
26178;BME280;13924;47.670;10.310;2023-12-04T12:00:44;92690;;;0.9;100.0
26178;BME280;13924;47.670;10.310;2023-12-04T12:15:47;92660;;;4.2;100.0
26178;BME280;13924;47.670;10.310;2023-12-04T12:30:47;92660;;;4.2;100.0
26178;BME280;13924;47.670;10.310;2023-12-04T12:45:46;92630;;;0.2;100.0
26178;BME280;13924;47.670;10.310;2023-12-04T13:00:51;92630;;;0.2;100.0
26178;BME280;13924;47.670;10.310;2023-12-04T13:15:48;92580;;;4.4;100.0
26178;BME280;13924;47.670;10.310;2023-12-04T13:30:49;92620;;;-0.4;100.0
26178;BME280;13924;47.670;10.310;2023-12-04T13:45:51;92750;;;-1.5;100.0
26178;BME280;13924;47.670;10.310;2023-12-04T14:00:51;92850;;;-1.8;100.0
26178;BME280;13924;47.670;10.310;2023-12-04T14:15:51;93020;;;-2.0;100.0
26178;BME280;13924;47.670;10.310;2023-12-04T14:30:52;93210;;;-2.2;100.0
26178;BME280;13924;47.670;10.310;2023-12-04T14:45:56;93210;;;-2.2;100.0
26178;BME280;13924;47.670;10.310;2023-12-04T15:00:55;93370;;;-2.5;100.0
26178;BME280;13924;47.670;10.310;2023-12-04T15:15:54;93400;;;-2.6;100.0
26178;BME280;13924;47.670;10.310;2023-12-04T15:30:55;93410;;;-2.8;100.0
26178;BME280;13924;47.670;10.310;2023-12-04T15:45:56;93460;;;-2.6;100.0
26178;BME280;13924;47.670;10.310;2023-12-04T16:00:57;93450;;;-2.7;100.0
26178;BME280;13924;47.670;10.310;2023-12-04T16:15:58;93430;;;-2.7;100.0
26178;BME280;13924;47.670;10.310;2023-12-04T16:30:59;93450;;;-2.6;100.0
26178;BME280;13924;47.670;10.310;2023-12-04T16:45:59;93430;;;-2.5;100.0
26178;BME280;13924;47.670;10.310;2023-12-04T17:01:04;93430;;;-2.5;100.0
26178;BME280;13924;47.670;10.310;2023-12-04T17:16:30;93400;;;-2.7;100.0
26178;BME280;13924;47.670;10.310;2023-12-04T17:31:04;93370;;;-2.7;100.0
26178;BME280;13924;47.670;10.310;2023-12-04T17:46:05;93370;;;-2.5;100.0
26178;BME280;13924;47.670;10.310;2023-12-04T18:01:08;93330;;;-2.2;100.0
26178;BME280;13924;47.670;10.310;2023-12-04T18:16:15;93300;;;-1.6;100.0
26178;BME280;13924;47.670;10.310;2023-12-04T18:31:05;93290;;;-2.1;100.0
26178;BME280;13924;47.670;10.310;2023-12-04T18:46:11;93290;;;-2.1;100.0
26178;BME280;13924;47.670;10.310;2023-12-04T19:01:07;93230;;;-2.2;100.0
26178;BME280;13924;47.670;10.310;2023-12-04T19:16:08;93230;;;-2.2;100.0
26178;BME280;13924;47.670;10.310;2023-12-04T19:31:08;93220;;;-2.0;100.0
26178;BME280;13924;47.670;10.310;2023-12-04T19:46:08;93200;;;-1.9;100.0
26178;BME280;13924;47.670;10.310;2023-12-04T20:16:10;93140;;;-1.6;100.0
26178;BME280;13924;47.670;10.310;2023-12-04T20:31:09;93140;;;-1.6;100.0
26178;BME280;13924;47.670;10.310;2023-12-04T20:46:11;93120;;;-1.9;100.0
26178;BME280;13924;47.670;10.310;2023-12-04T21:01:14;93100;;;-1.5;100.0
26178;BME280;13924;47.670;10.310;2023-12-04T21:16:12;93090;;;-1.9;100.0
26178;BME280;13924;47.670;10.310;2023-12-04T21:31:13;93090;;;-2.2;100.0
26178;BME280;13924;47.670;10.310;2023-12-04T21:46:14;93100;;;-2.1;100.0
26178;BME280;13924;47.670;10.310;2023-12-04T22:01:15;93120;;;-2.0;100.0
26178;BME280;13924;47.670;10.310;2023-12-04T22:16:15;93110;;;-1.3;100.0
26178;BME280;13924;47.670;10.310;2023-12-04T22:31:16;93110;;;-1.7;100.0
26178;BME280;13924;47.670;10.310;2023-12-04T22:46:16;93120;;;-1.8;100.0
26178;BME280;13924;47.670;10.310;2023-12-04T23:00:37;93130;;;-1.7;100.0
26178;BME280;13924;47.670;10.310;2023-12-04T23:15:36;93110;;;-0.9;100.0
26178;BME280;13924;47.670;10.310;2023-12-04T23:30:39;93130;;;-0.9;100.0
26178;BME280;13924;47.670;10.310;2023-12-04T23:45:37;93130;;;-0.4;100.0
